Time;durP1;ratioP1;P1;durP2;ratioP2;P2;SDS_P1;SDS_P2;PMS_P1;PMS_P2;Temp;Humidity;BMP_temperature;BMP_pressure;BME280_temperature;BME280_humidity;BME280_pressure;Samples;Min_cycle;Max_cycle;Signal;HPM_P1;HPM_P2
2022/01/12 00:01:28;;;;;;;;;;;3.40;99.90;;;;;;5141537;27;19979;-59
2022/01/12 00:03:54;;;;;;;;;;;3.30;99.90;;;;;;5128494;27;19935;-57
2022/01/12 00:06:20;;;;;;;;;;;3.40;99.90;;;;;;5140348;27;19934;-60
2022/01/12 00:08:48;;;;;;;;;;;3.60;99.90;;;;;;5145972;27;19927;-60
2022/01/12 00:11:13;;;;;;;;;;;3.40;99.90;;;;;;5133852;27;19992;-60
2022/01/12 00:13:39;;;;;;;;;;;3.40;99.90;;;;;;5137875;27;20044;-60
2022/01/12 00:16:05;;;;;;;;;;;3.40;99.90;;;;;;5139442;27;20349;-59
2022/01/12 00:18:31;;;;;;;;;;;3.40;99.90;;;;;;5133061;27;19939;-59
2022/01/12 00:20:57;;;;;;;;;;;3.80;99.90;;;;;;5145408;27;20380;-60
2022/01/12 00:23:22;;;;;;;;;;;3.40;99.90;;;;;;5134954;27;19927;-60
2022/01/12 00:26:07;;;;;;;;;;;3.40;99.90;;;;;;5140746;27;19931;-60
2022/01/12 00:34:03;;;;;;;;;;;3.40;99.90;;;;;;5144281;27;19927;-57
2022/01/12 00:36:29;;;;;;;;;;;3.40;99.90;;;;;;5136035;27;19927;-56
2022/01/12 00:38:56;;;;;;;;;;;3.50;99.90;;;;;;5149783;27;19927;-60
2022/01/12 00:41:21;;;;;;;;;;;3.60;99.90;;;;;;5141796;27;19972;-60
2022/01/12 00:43:50;;;;;;;;;;;3.40;99.90;;;;;;5134399;27;19923;-56
2022/01/12 00:46:16;;;;;;;;;;;3.40;99.90;;;;;;5145731;27;19979;-56
2022/01/12 00:48:42;;;;;;;;;;;3.40;99.90;;;;;;5135672;27;19931;-56
2022/01/12 00:51:10;;;;;;;;;;;3.40;99.90;;;;;;5148462;27;19928;-57
2022/01/12 00:53:36;;;;;;;;;;;3.70;99.90;;;;;;5140448;27;19931;-55
2022/01/12 00:56:01;;;;;;;;;;;3.40;99.90;;;;;;5138729;27;20448;-56
2022/01/12 00:58:27;;;;;;;;;;;4.30;99.90;;;;;;5147402;27;19927;-56
2022/01/12 01:00:52;;;;;;;;;;;3.50;99.90;;;;;;5135267;27;19927;-56
2022/01/12 01:03:18;;;;;;;;;;;3.50;99.90;;;;;;5150819;27;20342;-55
2022/01/12 01:05:43;;;;;;;;;;;4.00;99.90;;;;;;5141359;27;19927;-56
2022/01/12 01:08:09;;;;;;;;;;;3.50;99.90;;;;;;5143373;27;19950;-55
2022/01/12 01:10:45;;;;;;;;;;;3.50;99.90;;;;;;5135270;27;20373;-60
2022/01/12 01:13:13;;;;;;;;;;;3.50;99.90;;;;;;5134845;27;19931;-60
2022/01/12 01:26:34;;;;;;;;;;;3.60;99.90;;;;;;5120885;27;19927;-55
2022/01/12 01:29:00;;;;;;;;;;;3.50;99.90;;;;;;5147736;27;19938;-57
2022/01/12 01:31:30;;;;;;;;;;;3.50;99.90;;;;;;5131785;27;20369;-56
2022/01/12 01:33:57;;;;;;;;;;;3.60;99.90;;;;;;5127534;27;19927;-56
2022/01/12 01:36:27;;;;;;;;;;;3.50;99.90;;;;;;5130829;27;19946;-57
2022/01/12 01:38:53;;;;;;;;;;;3.50;99.90;;;;;;5147497;27;20456;-56
2022/01/12 01:41:20;;;;;;;;;;;3.60;99.90;;;;;;5141021;27;19949;-56
2022/01/12 01:44:19;;;;;;;;;;;3.60;99.90;;;;;;5140799;27;19926;-56
2022/01/12 01:54:49;;;;;;;;;;;3.50;99.90;;;;;;5146435;27;19934;-58
2022/01/12 01:57:15;;;;;;;;;;;3.60;99.90;;;;;;5136613;27;19927;-56
2022/01/12 01:59:40;;;;;;;;;;;3.60;99.90;;;;;;5142285;27;19932;-60
2022/01/12 02:02:06;;;;;;;;;;;3.60;99.90;;;;;;5143467;27;19927;-56
2022/01/12 02:04:32;;;;;;;;;;;3.60;99.90;;;;;;5149519;27;19927;-58
2022/01/12 02:06:58;;;;;;;;;;;3.10;99.90;;;;;;5134081;27;20266;-61
2022/01/12 02:09:25;;;;;;;;;;;3.60;99.90;;;;;;5141967;27;19934;-59
2022/01/12 02:11:51;;;;;;;;;;;3.60;99.90;;;;;;5140583;27;20027;-59
2022/01/12 02:14:17;;;;;;;;;;;3.60;99.90;;;;;;5135319;27;19934;-59
2022/01/12 02:16:53;;;;;;;;;;;4.10;99.90;;;;;;5145772;27;20303;-58
2022/01/12 02:19:49;;;;;;;;;;;3.60;99.90;;;;;;5136416;27;20262;-57
2022/01/12 02:35:51;;;;;;;;;;;3.60;99.90;;;;;;5128688;27;20006;-56
2022/01/12 02:40:53;;;;;;;;;;;3.70;99.90;;;;;;5141851;27;20273;-56
2022/01/12 02:50:36;;;;;;;;;;;3.70;99.90;;;;;;5129322;27;20380;-56
2022/01/12 02:54:39;;;;;;;;;;;3.80;99.90;;;;;;5087915;28;19932;-57
2022/01/12 02:57:05;;;;;;;;;;;3.70;99.90;;;;;;5120175;27;19978;-57
2022/01/12 02:59:30;;;;;;;;;;;3.70;99.90;;;;;;5142706;27;19931;-57
2022/01/12 03:04:28;;;;;;;;;;;3.70;99.90;;;;;;5148976;27;19927;-57
2022/01/12 03:07:03;;;;;;;;;;;3.80;99.90;;;;;;5131963;27;19935;-57
2022/01/12 03:09:28;;;;;;;;;;;3.80;99.90;;;;;;5142786;27;19927;-57
2022/01/12 03:11:54;;;;;;;;;;;3.70;99.90;;;;;;5140111;27;19995;-55
2022/01/12 03:14:19;;;;;;;;;;;4.30;99.90;;;;;;5135335;27;19928;-60
2022/01/12 03:16:45;;;;;;;;;;;4.30;99.90;;;;;;5145815;27;19934;-59
2022/01/12 03:19:10;;;;;;;;;;;3.80;99.90;;;;;;5132653;27;19931;-59
2022/01/12 03:21:36;;;;;;;;;;;3.40;99.90;;;;;;5141597;27;19927;-61
2022/01/12 03:24:03;;;;;;;;;;;4.10;99.90;;;;;;5138550;27;19923;-57
2022/01/12 03:26:29;;;;;;;;;;;3.80;99.90;;;;;;5135555;27;19980;-59
2022/01/12 03:28:56;;;;;;;;;;;3.80;99.90;;;;;;5145123;27;20021;-61
2022/01/12 03:31:23;;;;;;;;;;;3.80;99.90;;;;;;5129301;27;19934;-56
2022/01/12 03:33:54;;;;;;;;;;;3.80;99.90;;;;;;5120715;27;19927;-56
2022/01/12 03:38:53;;;;;;;;;;;3.80;99.90;;;;;;5145566;27;19974;-56
2022/01/12 03:41:19;;;;;;;;;;;3.80;99.90;;;;;;5141135;27;19928;-56
2022/01/12 03:43:45;;;;;;;;;;;3.70;99.90;;;;;;5137868;27;19980;-58
2022/01/12 03:46:11;;;;;;;;;;;3.70;99.90;;;;;;5135041;27;19935;-57
2022/01/12 03:48:36;;;;;;;;;;;3.60;99.90;;;;;;5129176;27;19931;-60
2022/01/12 03:51:02;;;;;;;;;;;3.60;99.90;;;;;;5132464;27;19927;-57
2022/01/12 03:53:28;;;;;;;;;;;3.60;99.90;;;;;;5141851;27;19923;-59
2022/01/12 03:55:53;;;;;;;;;;;3.50;99.90;;;;;;5138636;27;20364;-61
2022/01/12 03:58:19;;;;;;;;;;;3.50;99.90;;;;;;5134640;27;19928;-56
2022/01/12 04:00:44;;;;;;;;;;;3.50;99.90;;;;;;5144683;27;19990;-56
2022/01/12 04:03:12;;;;;;;;;;;3.40;99.90;;;;;;5129968;27;19985;-56
2022/01/12 04:08:19;;;;;;;;;;;3.60;99.90;;;;;;5136746;27;19991;-56
2022/01/12 04:11:05;;;;;;;;;;;3.40;99.90;;;;;;5149080;27;19927;-56
2022/01/12 04:13:32;;;;;;;;;;;3.40;99.90;;;;;;5147389;27;19938;-56
2022/01/12 04:16:01;;;;;;;;;;;3.30;99.90;;;;;;5144147;27;20013;-56
2022/01/12 04:18:27;;;;;;;;;;;3.50;99.90;;;;;;5136956;27;19928;-58
2022/01/12 04:20:53;;;;;;;;;;;3.30;99.90;;;;;;5149596;27;19971;-57
2022/01/12 04:23:20;;;;;;;;;;;3.30;99.90;;;;;;5137672;27;19927;-57
2022/01/12 04:25:59;;;;;;;;;;;3.20;99.90;;;;;;5144667;27;19934;-57
2022/01/12 04:28:25;;;;;;;;;;;3.20;99.90;;;;;;5147530;27;19962;-56
2022/01/12 04:30:52;;;;;;;;;;;3.20;99.90;;;;;;5133643;27;19934;-56
2022/01/12 04:33:18;;;;;;;;;;;3.20;99.90;;;;;;5138105;27;19927;-57
2022/01/12 04:35:53;;;;;;;;;;;3.20;99.90;;;;;;5142229;27;19931;-56
2022/01/12 04:38:20;;;;;;;;;;;3.10;99.90;;;;;;5136398;27;19928;-55
2022/01/12 04:40:47;;;;;;;;;;;3.10;99.90;;;;;;5138407;27;19942;-58
2022/01/12 04:43:13;;;;;;;;;;;3.10;99.90;;;;;;5147955;27;20064;-56
2022/01/12 04:45:56;;;;;;;;;;;3.10;99.90;;;;;;5140570;27;20018;-55
2022/01/12 04:50:49;;;;;;;;;;;3.00;99.90;;;;;;5149414;27;19934;-57
2022/01/12 04:53:15;;;;;;;;;;;3.00;99.90;;;;;;5136930;27;19934;-58
2022/01/12 04:55:41;;;;;;;;;;;3.00;99.90;;;;;;5143654;27;19932;-61
2022/01/12 04:58:07;;;;;;;;;;;2.90;99.90;;;;;;5144710;27;19927;-56
2022/01/12 05:00:33;;;;;;;;;;;3.30;99.90;;;;;;5135882;27;20071;-60
2022/01/12 05:13:39;;;;;;;;;;;2.80;99.90;;;;;;5139876;27;19941;-58
2022/01/12 05:16:05;;;;;;;;;;;2.70;99.90;;;;;;5139229;27;20179;-60
2022/01/12 05:18:32;;;;;;;;;;;2.70;99.90;;;;;;5147248;27;19938;-56
2022/01/12 05:20:57;;;;;;;;;;;2.70;99.90;;;;;;5134917;27;19984;-63
2022/01/12 05:23:24;;;;;;;;;;;2.60;99.90;;;;;;5145807;27;20314;-63
2022/01/12 05:25:51;;;;;;;;;;;2.70;99.90;;;;;;5137962;27;19923;-65
2022/01/12 05:28:17;;;;;;;;;;;2.60;99.90;;;;;;5145598;27;20349;-65
2022/01/12 05:30:43;;;;;;;;;;;3.00;99.90;;;;;;5133916;27;19931;-61
2022/01/12 05:33:09;;;;;;;;;;;2.50;99.90;;;;;;5134385;27;19971;-62
2022/01/12 05:35:35;;;;;;;;;;;2.50;99.90;;;;;;5143160;27;20365;-59
2022/01/12 05:38:01;;;;;;;;;;;2.50;99.90;;;;;;5143144;27;19937;-61
2022/01/12 05:40:28;;;;;;;;;;;2.90;99.90;;;;;;5146704;27;20022;-58
2022/01/12 05:42:54;;;;;;;;;;;2.40;99.90;;;;;;5147393;27;20063;-62
2022/01/12 05:45:21;;;;;;;;;;;2.40;99.90;;;;;;5136860;27;19966;-55
2022/01/12 05:50:15;;;;;;;;;;;2.30;99.90;;;;;;5144858;27;19992;-64
2022/01/12 05:52:41;;;;;;;;;;;2.30;99.90;;;;;;5134504;27;20293;-58
2022/01/12 05:55:07;;;;;;;;;;;2.20;99.90;;;;;;5145449;27;19974;-58
2022/01/12 05:57:33;;;;;;;;;;;2.10;99.90;;;;;;5138439;27;19927;-56
2022/01/12 05:59:59;;;;;;;;;;;2.40;99.90;;;;;;5139788;27;19927;-60
2022/01/12 06:02:25;;;;;;;;;;;2.10;99.90;;;;;;5145886;27;20292;-57
2022/01/12 06:04:50;;;;;;;;;;;2.10;99.90;;;;;;5147146;27;19931;-60
2022/01/12 06:07:16;;;;;;;;;;;2.10;99.90;;;;;;5136140;27;19927;-56
2022/01/12 06:09:42;;;;;;;;;;;2.10;99.90;;;;;;5142111;27;19927;-58
2022/01/12 06:12:08;;;;;;;;;;;2.10;99.90;;;;;;5134587;27;19927;-65
2022/01/12 06:14:33;;;;;;;;;;;2.10;99.90;;;;;;5130792;27;19928;-57
2022/01/12 06:16:59;;;;;;;;;;;2.00;99.90;;;;;;5136595;27;19969;-61
2022/01/12 06:19:24;;;;;;;;;;;2.40;99.90;;;;;;5141265;27;19935;-65
2022/01/12 06:21:50;;;;;;;;;;;2.00;99.90;;;;;;5132218;27;19930;-56
2022/01/12 06:24:16;;;;;;;;;;;2.00;99.90;;;;;;5131542;27;20323;-59
2022/01/12 06:26:43;;;;;;;;;;;2.00;99.90;;;;;;5130188;27;19923;-58
2022/01/12 06:31:34;;;;;;;;;;;2.00;99.90;;;;;;5128503;27;20014;-63
2022/01/12 06:34:00;;;;;;;;;;;2.00;99.90;;;;;;5136919;27;20192;-60
2022/01/12 06:36:26;;;;;;;;;;;1.90;99.90;;;;;;5136465;27;19942;-62
2022/01/12 06:38:51;;;;;;;;;;;1.90;99.90;;;;;;5131009;27;19927;-62
2022/01/12 06:41:18;;;;;;;;;;;2.50;99.90;;;;;;5137983;27;20448;-59
2022/01/12 06:43:44;;;;;;;;;;;1.90;99.90;;;;;;5144677;27;19931;-60
2022/01/12 06:46:10;;;;;;;;;;;1.90;99.90;;;;;;5135103;27;19938;-61
2022/01/12 06:48:36;;;;;;;;;;;2.40;99.90;;;;;;5146395;27;19983;-60
2022/01/12 06:51:02;;;;;;;;;;;1.80;99.90;;;;;;5133219;27;19930;-66
2022/01/12 06:53:27;;;;;;;;;;;1.70;99.90;;;;;;5135453;27;19927;-66
2022/01/12 06:55:54;;;;;;;;;;;1.70;99.90;;;;;;5137461;27;20262;-68
2022/01/12 06:58:20;;;;;;;;;;;1.80;99.90;;;;;;5141888;27;19923;-64
2022/01/12 07:00:45;;;;;;;;;;;1.70;99.90;;;;;;5141872;27;19934;-69
2022/01/12 07:03:11;;;;;;;;;;;1.70;99.90;;;;;;5129692;27;19979;-67
2022/01/12 07:05:37;;;;;;;;;;;1.70;99.90;;;;;;5128615;27;19927;-64
2022/01/12 07:08:03;;;;;;;;;;;1.70;99.90;;;;;;5132887;27;19935;-59
2022/01/12 07:10:28;;;;;;;;;;;1.70;99.90;;;;;;5141064;27;20380;-61
2022/01/12 07:12:54;;;;;;;;;;;1.70;99.90;;;;;;5143565;27;19927;-68
2022/01/12 07:15:19;;;;;;;;;;;1.80;99.90;;;;;;5142470;27;19927;-62
2022/01/12 07:17:45;;;;;;;;;;;1.80;99.90;;;;;;5138734;27;20498;-57
2022/01/12 07:20:11;;;;;;;;;;;1.80;99.90;;;;;;5135741;27;19931;-58
2022/01/12 07:22:36;;;;;;;;;;;1.80;99.90;;;;;;5128882;27;19927;-58
2022/01/12 07:25:02;;;;;;;;;;;2.60;99.90;;;;;;5132936;27;19928;-60
2022/01/12 07:27:28;;;;;;;;;;;1.80;99.90;;;;;;5138453;27;19927;-59
2022/01/12 07:29:53;;;;;;;;;;;1.80;99.90;;;;;;5124516;27;19969;-61
2022/01/12 07:32:19;;;;;;;;;;;1.80;99.90;;;;;;5133274;27;20018;-60
2022/01/12 07:34:45;;;;;;;;;;;1.80;99.90;;;;;;5130549;27;19928;-60
2022/01/12 07:37:11;;;;;;;;;;;1.80;99.90;;;;;;5132077;27;19938;-57
2022/01/12 07:39:36;;;;;;;;;;;1.80;99.90;;;;;;5141470;27;20400;-56
2022/01/12 07:42:03;;;;;;;;;;;1.90;99.90;;;;;;5117406;27;19927;-56
2022/01/12 07:44:29;;;;;;;;;;;1.90;99.90;;;;;;5130913;27;19949;-56
2022/01/12 07:46:55;;;;;;;;;;;2.60;99.90;;;;;;5144985;27;20368;-55
2022/01/12 07:49:20;;;;;;;;;;;1.90;99.90;;;;;;5133578;27;19931;-55
2022/01/12 07:51:46;;;;;;;;;;;1.90;99.90;;;;;;5139042;27;19934;-56
2022/01/12 07:54:12;;;;;;;;;;;1.90;99.90;;;;;;5142278;27;20037;-56
2022/01/12 07:56:37;;;;;;;;;;;1.90;99.90;;;;;;5130541;27;19927;-55
2022/01/12 07:59:03;;;;;;;;;;;1.90;99.90;;;;;;5144829;27;19927;-55
2022/01/12 08:01:28;;;;;;;;;;;1.90;99.90;;;;;;5134848;27;19972;-55
2022/01/12 08:03:54;;;;;;;;;;;2.50;99.90;;;;;;5147341;27;20323;-55
2022/01/12 08:06:20;;;;;;;;;;;2.10;99.90;;;;;;5133725;27;20030;-56
2022/01/12 08:08:46;;;;;;;;;;;1.90;99.90;;;;;;5145942;27;20333;-55
2022/01/12 08:11:12;;;;;;;;;;;2.10;99.90;;;;;;5131591;27;20297;-57
2022/01/12 08:13:39;;;;;;;;;;;2.00;99.90;;;;;;5139507;27;19927;-55
2022/01/12 08:16:05;;;;;;;;;;;1.90;99.90;;;;;;5140390;27;20014;-55
2022/01/12 08:18:30;;;;;;;;;;;1.90;99.90;;;;;;5146358;27;20025;-56
2022/01/12 08:20:56;;;;;;;;;;;2.00;99.90;;;;;;5131815;27;20586;-56
2022/01/12 08:23:21;;;;;;;;;;;2.00;99.90;;;;;;5140974;27;19977;-56
2022/01/12 08:25:47;;;;;;;;;;;2.00;99.90;;;;;;5137846;27;19960;-56
2022/01/12 08:28:13;;;;;;;;;;;2.80;99.90;;;;;;5128512;27;19928;-57
2022/01/12 08:30:39;;;;;;;;;;;2.00;99.90;;;;;;5128301;27;20321;-56
2022/01/12 08:33:05;;;;;;;;;;;2.00;99.90;;;;;;5130745;27;19927;-56
2022/01/12 08:35:30;;;;;;;;;;;2.10;99.90;;;;;;5139565;27;20533;-56
2022/01/12 08:37:57;;;;;;;;;;;2.10;99.90;;;;;;5138413;27;19927;-56
2022/01/12 08:40:25;;;;;;;;;;;2.10;99.90;;;;;;5142733;27;19969;-59
2022/01/12 08:42:50;;;;;;;;;;;2.20;99.90;;;;;;5143597;27;19923;-56
2022/01/12 08:45:16;;;;;;;;;;;2.20;99.90;;;;;;5133864;27;19999;-56
2022/01/12 08:47:42;;;;;;;;;;;2.30;99.90;;;;;;5138719;27;19927;-63
2022/01/12 08:50:08;;;;;;;;;;;4.30;99.90;;;;;;5139417;27;19957;-59
2022/01/12 08:52:34;;;;;;;;;;;2.30;99.90;;;;;;5139955;27;19953;-62
2022/01/12 08:55:00;;;;;;;;;;;2.30;99.90;;;;;;5136574;27;19927;-69
2022/01/12 08:57:29;;;;;;;;;;;2.40;99.90;;;;;;5137981;27;19934;-60
2022/01/12 08:59:58;;;;;;;;;;;2.60;99.90;;;;;;5147257;27;19942;-67
2022/01/12 09:02:24;;;;;;;;;;;2.50;99.90;;;;;;5131962;27;19931;-62
2022/01/12 09:04:50;;;;;;;;;;;3.00;99.90;;;;;;5139039;27;19927;-59
2022/01/12 09:07:15;;;;;;;;;;;0.60;99.90;;;;;;5137168;27;19983;-65
2022/01/12 09:09:41;;;;;;;;;;;2.50;99.90;;;;;;5133341;27;20559;-64
2022/01/12 09:12:07;;;;;;;;;;;2.60;99.90;;;;;;5135055;27;19930;-56
2022/01/12 09:14:33;;;;;;;;;;;2.70;99.90;;;;;;5132819;27;19973;-55
2022/01/12 09:16:59;;;;;;;;;;;2.70;99.90;;;;;;5147218;27;19927;-60
2022/01/12 09:19:25;;;;;;;;;;;2.80;99.90;;;;;;5134642;27;19927;-59
2022/01/12 09:21:51;;;;;;;;;;;2.80;99.90;;;;;;5139023;27;19938;-59
2022/01/12 09:24:17;;;;;;;;;;;2.90;99.90;;;;;;5140704;27;19928;-58
2022/01/12 09:26:43;;;;;;;;;;;2.90;99.90;;;;;;5138635;27;19953;-60
2022/01/12 09:29:09;;;;;;;;;;;3.00;99.90;;;;;;5136457;27;19981;-56
2022/01/12 09:31:35;;;;;;;;;;;3.80;99.90;;;;;;5135921;27;19974;-59
2022/01/12 09:34:01;;;;;;;;;;;3.20;99.90;;;;;;5142918;27;19975;-60
2022/01/12 09:36:27;;;;;;;;;;;3.30;99.90;;;;;;5144125;27;19926;-59
2022/01/12 09:38:54;;;;;;;;;;;3.30;99.90;;;;;;5133511;27;19934;-59
2022/01/12 09:41:20;;;;;;;;;;;3.50;99.90;;;;;;5142387;27;19939;-58
2022/01/12 09:43:50;;;;;;;;;;;3.40;99.90;;;;;;5131382;27;19927;-56
2022/01/12 09:46:15;;;;;;;;;;;3.50;99.90;;;;;;5138491;27;19985;-57
2022/01/12 09:48:41;;;;;;;;;;;3.60;99.90;;;;;;5146238;27;20400;-58
2022/01/12 09:51:07;;;;;;;;;;;3.60;99.90;;;;;;5135427;27;20005;-59
2022/01/12 09:53:33;;;;;;;;;;;3.70;99.90;;;;;;5135112;27;19934;-58
2022/01/12 09:55:59;;;;;;;;;;;4.00;99.90;;;;;;5141980;27;20342;-56
2022/01/12 09:58:27;;;;;;;;;;;3.80;99.90;;;;;;5148081;27;19934;-59
2022/01/12 10:00:57;;;;;;;;;;;3.90;99.90;;;;;;5133883;27;19927;-57
2022/01/12 10:03:23;;;;;;;;;;;4.00;99.90;;;;;;5133183;27;19971;-58
2022/01/12 10:05:49;;;;;;;;;;;4.10;99.90;;;;;;5140392;27;19989;-57
2022/01/12 10:08:15;;;;;;;;;;;4.20;99.90;;;;;;5136698;27;20399;-60
2022/01/12 10:10:42;;;;;;;;;;;4.20;99.90;;;;;;5147514;27;19988;-61
2022/01/12 10:13:23;;;;;;;;;;;4.40;99.90;;;;;;5149409;27;20018;-60
2022/01/12 10:15:54;;;;;;;;;;;4.30;99.90;;;;;;5135374;27;19935;-59
2022/01/12 10:18:22;;;;;;;;;;;4.40;99.90;;;;;;5139745;27;20384;-60
2022/01/12 10:20:49;;;;;;;;;;;4.50;99.90;;;;;;5134378;27;20010;-60
2022/01/12 10:23:15;;;;;;;;;;;4.60;99.90;;;;;;5134435;27;20303;-56
2022/01/12 10:25:48;;;;;;;;;;;4.80;99.90;;;;;;5139179;27;19931;-56
2022/01/12 10:28:18;;;;;;;;;;;4.70;99.90;;;;;;5143031;27;20394;-56
2022/01/12 10:31:10;;;;;;;;;;;4.80;99.90;;;;;;5131555;27;19927;-57
2022/01/12 10:33:35;;;;;;;;;;;4.90;99.90;;;;;;5129792;27;19938;-55
2022/01/12 10:36:03;;;;;;;;;;;4.90;99.90;;;;;;5138252;27;19932;-56
2022/01/12 10:38:28;;;;;;;;;;;5.00;99.90;;;;;;5136169;27;19926;-55
2022/01/12 10:40:55;;;;;;;;;;;5.80;99.90;;;;;;5141764;27;20282;-55
2022/01/12 10:43:27;;;;;;;;;;;5.60;99.90;;;;;;5129067;27;19931;-56
2022/01/12 10:45:53;;;;;;;;;;;5.30;99.90;;;;;;5129648;27;20408;-56
2022/01/12 10:48:19;;;;;;;;;;;5.50;99.90;;;;;;5111834;27;19928;-55
2022/01/12 10:50:54;;;;;;;;;;;5.50;99.90;;;;;;5144531;27;20425;-55
2022/01/12 10:53:27;;;;;;;;;;;5.60;99.90;;;;;;5131516;27;19934;-56
2022/01/12 10:56:04;;;;;;;;;;;5.50;99.90;;;;;;5142348;27;19982;-55
2022/01/12 10:58:29;;;;;;;;;;;5.60;99.90;;;;;;5129795;27;20335;-57
2022/01/12 11:00:55;;;;;;;;;;;5.50;99.90;;;;;;5138081;27;19931;-55
2022/01/12 11:03:22;;;;;;;;;;;5.50;99.90;;;;;;5130707;27;19931;-56
2022/01/12 11:05:48;;;;;;;;;;;5.50;99.90;;;;;;5128691;27;19935;-55
2022/01/12 11:08:14;;;;;;;;;;;5.60;99.90;;;;;;5131884;27;19934;-56
2022/01/12 11:10:40;;;;;;;;;;;5.70;99.90;;;;;;5134182;27;19931;-55
2022/01/12 11:13:06;;;;;;;;;;;5.60;99.90;;;;;;5136672;27;19934;-56
2022/01/12 11:15:33;;;;;;;;;;;5.70;99.90;;;;;;5127576;27;19988;-57
2022/01/12 11:17:59;;;;;;;;;;;5.70;99.90;;;;;;5128757;27;19937;-57
2022/01/12 11:20:25;;;;;;;;;;;5.70;99.90;;;;;;5124691;27;19928;-56
2022/01/12 11:22:57;;;;;;;;;;;5.80;99.90;;;;;;5125777;27;20389;-56
2022/01/12 11:25:25;;;;;;;;;;;5.70;99.90;;;;;;5128199;27;19934;-56
2022/01/12 11:28:23;;;;;;;;;;;5.90;99.90;;;;;;5128456;27;20041;-57
2022/01/12 11:30:50;;;;;;;;;;;5.80;99.90;;;;;;5071658;27;19988;-56
2022/01/12 11:33:16;;;;;;;;;;;6.20;99.90;;;;;;5125337;27;20344;-56
2022/01/12 11:35:43;;;;;;;;;;;6.00;99.90;;;;;;5124177;27;20453;-56
2022/01/12 11:38:19;;;;;;;;;;;6.00;99.90;;;;;;5124380;27;19927;-56
2022/01/12 11:40:45;;;;;;;;;;;5.90;99.90;;;;;;5124659;27;20342;-57
2022/01/12 11:43:18;;;;;;;;;;;6.50;99.90;;;;;;5127179;27;19931;-60
2022/01/12 11:45:44;;;;;;;;;;;5.90;99.90;;;;;;5132981;27;19933;-59
2022/01/12 11:48:09;;;;;;;;;;;6.00;99.90;;;;;;5132620;27;20018;-56
2022/01/12 11:50:35;;;;;;;;;;;6.00;99.90;;;;;;5142152;27;20506;-57
2022/01/12 11:53:01;;;;;;;;;;;6.10;99.90;;;;;;5128741;27;19931;-57
2022/01/12 11:55:31;;;;;;;;;;;6.20;99.90;;;;;;5136891;27;19928;-56
2022/01/12 11:58:02;;;;;;;;;;;6.40;99.90;;;;;;5124956;27;19927;-57
2022/01/12 12:00:30;;;;;;;;;;;6.40;99.90;;;;;;5124919;27;19939;-56
2022/01/12 12:02:56;;;;;;;;;;;6.30;99.90;;;;;;5126429;27;19942;-55
2022/01/12 12:05:25;;;;;;;;;;;6.50;99.90;;;;;;5125225;27;19974;-56
2022/01/12 12:07:51;;;;;;;;;;;6.40;99.90;;;;;;5127507;27;19946;-56
2022/01/12 12:10:18;;;;;;;;;;;6.90;99.90;;;;;;5124894;27;19948;-56
2022/01/12 12:12:44;;;;;;;;;;;6.40;99.90;;;;;;5124147;27;20400;-56
2022/01/12 12:15:10;;;;;;;;;;;7.70;99.90;;;;;;5124949;27;20022;-56
2022/01/12 12:17:37;;;;;;;;;;;6.10;99.90;;;;;;5124789;27;20388;-55
2022/01/12 12:20:04;;;;;;;;;;;6.10;99.90;;;;;;5125113;27;19967;-55
2022/01/12 12:22:31;;;;;;;;;;;6.10;99.90;;;;;;5125588;27;19927;-56
2022/01/12 12:24:58;;;;;;;;;;;6.20;99.90;;;;;;5131974;27;19981;-56
2022/01/12 12:27:25;;;;;;;;;;;6.20;99.90;;;;;;5138255;27;19927;-56
2022/01/12 12:29:51;;;;;;;;;;;6.00;99.90;;;;;;5129964;27;20325;-56
2022/01/12 12:32:18;;;;;;;;;;;6.10;99.90;;;;;;5128676;27;19927;-55
2022/01/12 12:34:44;;;;;;;;;;;6.20;99.90;;;;;;5128606;27;20510;-58
2022/01/12 12:37:12;;;;;;;;;;;6.20;99.90;;;;;;5129741;27;19927;-58
2022/01/12 12:39:39;;;;;;;;;;;6.20;99.90;;;;;;5132046;27;19968;-57
2022/01/12 12:42:12;;;;;;;;;;;6.30;99.90;;;;;;5133050;27;20545;-56
2022/01/12 12:44:38;;;;;;;;;;;6.40;99.90;;;;;;5129193;27;20405;-55
2022/01/12 12:47:12;;;;;;;;;;;6.30;99.90;;;;;;5144974;27;20156;-56
2022/01/12 12:49:44;;;;;;;;;;;6.30;99.90;;;;;;5136517;27;20032;-56
2022/01/12 12:52:09;;;;;;;;;;;6.30;99.90;;;;;;5135234;27;20030;-56
2022/01/12 12:54:39;;;;;;;;;;;6.40;99.90;;;;;;5145025;27;20018;-57
2022/01/12 12:57:07;;;;;;;;;;;6.50;99.90;;;;;;5131859;27;19927;-56
2022/01/12 12:59:34;;;;;;;;;;;6.60;99.90;;;;;;5139525;27;20032;-57
2022/01/12 13:02:00;;;;;;;;;;;6.70;99.90;;;;;;5139171;27;20384;-57
2022/01/12 13:04:25;;;;;;;;;;;6.70;99.90;;;;;;5146180;27;19980;-56
2022/01/12 13:06:51;;;;;;;;;;;6.70;99.90;;;;;;5134844;27;19942;-57
2022/01/12 13:09:18;;;;;;;;;;;6.60;99.90;;;;;;5136600;27;19927;-56
2022/01/12 13:11:44;;;;;;;;;;;6.80;99.90;;;;;;5127956;27;19927;-56
2022/01/12 13:14:11;;;;;;;;;;;6.70;99.90;;;;;;5132779;27;20418;-56
2022/01/12 13:16:48;;;;;;;;;;;6.80;99.90;;;;;;5143094;27;20480;-56
2022/01/12 13:19:22;;;;;;;;;;;6.80;99.90;;;;;;5133306;27;19931;-57
2022/01/12 13:21:48;;;;;;;;;;;6.90;99.90;;;;;;5138060;27;20377;-57
2022/01/12 13:24:14;;;;;;;;;;;6.90;99.90;;;;;;5135493;27;19988;-58
2022/01/12 13:26:40;;;;;;;;;;;6.80;99.90;;;;;;5144280;27;20392;-60
2022/01/12 13:29:08;;;;;;;;;;;6.80;99.90;;;;;;5126706;27;19934;-59
2022/01/12 13:31:34;;;;;;;;;;;6.70;99.90;;;;;;5128122;27;19927;-59
2022/01/12 13:34:00;;;;;;;;;;;7.30;99.90;;;;;;5139785;27;20258;-60
2022/01/12 13:36:27;;;;;;;;;;;6.70;99.90;;;;;;5139934;27;19963;-60
2022/01/12 13:38:53;;;;;;;;;;;6.60;99.90;;;;;;5142124;27;19988;-60
2022/01/12 13:41:22;;;;;;;;;;;6.60;99.90;;;;;;5143767;27;20397;-58
2022/01/12 13:43:53;;;;;;;;;;;6.60;99.90;;;;;;5138557;27;19928;-57
2022/01/12 13:46:19;;;;;;;;;;;6.70;99.90;;;;;;5141947;27;19930;-61
2022/01/12 13:49:03;;;;;;;;;;;6.70;99.90;;;;;;5131192;27;19927;-65
2022/01/12 13:51:36;;;;;;;;;;;6.70;99.90;;;;;;5140948;27;20003;-67
2022/01/12 13:54:13;;;;;;;;;;;6.60;99.90;;;;;;5139295;27;19934;-59
2022/01/12 13:56:41;;;;;;;;;;;6.50;99.90;;;;;;5132135;27;19976;-56
2022/01/12 13:59:08;;;;;;;;;;;6.60;99.90;;;;;;5143007;27;19927;-60
2022/01/12 14:01:34;;;;;;;;;;;6.60;99.90;;;;;;5128281;27;19934;-58
2022/01/12 14:04:13;;;;;;;;;;;6.60;99.90;;;;;;5127874;27;19934;-66
2022/01/12 14:06:41;;;;;;;;;;;6.60;99.90;;;;;;5132016;27;20349;-60
2022/01/12 14:09:12;;;;;;;;;;;6.60;99.90;;;;;;5128212;27;20702;-59
2022/01/12 14:11:38;;;;;;;;;;;6.60;99.90;;;;;;5127775;27;19927;-64
2022/01/12 14:14:04;;;;;;;;;;;6.60;99.90;;;;;;5138335;27;20039;-65
2022/01/12 14:16:31;;;;;;;;;;;6.60;99.90;;;;;;5130988;27;19932;-63
2022/01/12 14:18:57;;;;;;;;;;;6.60;99.90;;;;;;5126954;27;19935;-57
2022/01/12 14:21:23;;;;;;;;;;;6.50;99.90;;;;;;5140375;27;20441;-56
2022/01/12 14:23:48;;;;;;;;;;;6.40;99.90;;;;;;5128690;27;19927;-65
2022/01/12 14:26:20;;;;;;;;;;;6.40;99.90;;;;;;5134597;27;20407;-56
2022/01/12 14:28:45;;;;;;;;;;;6.40;99.90;;;;;;5127739;27;19931;-58
2022/01/12 14:31:11;;;;;;;;;;;6.20;99.90;;;;;;5142004;27;20419;-56
2022/01/12 14:33:37;;;;;;;;;;;6.10;99.90;;;;;;5126696;27;19950;-62
2022/01/12 14:36:02;;;;;;;;;;;6.00;99.90;;;;;;5128623;27;20407;-59
2022/01/12 14:38:28;;;;;;;;;;;5.90;99.90;;;;;;5139787;27;19949;-59
2022/01/12 14:40:53;;;;;;;;;;;6.40;99.90;;;;;;5139254;27;19934;-61
2022/01/12 14:43:19;;;;;;;;;;;5.80;99.90;;;;;;5129518;27;20027;-60
2022/01/12 14:45:45;;;;;;;;;;;5.80;99.90;;;;;;5129489;27;19927;-57
2022/01/12 14:48:12;;;;;;;;;;;5.80;99.90;;;;;;5127626;27;20381;-56
2022/01/12 14:50:38;;;;;;;;;;;5.70;99.90;;;;;;5129834;27;19927;-56
2022/01/12 14:53:04;;;;;;;;;;;5.60;99.90;;;;;;5128893;27;19923;-56
2022/01/12 14:55:30;;;;;;;;;;;5.70;99.90;;;;;;5130201;27;19990;-58
2022/01/12 14:57:56;;;;;;;;;;;5.60;99.90;;;;;;5133886;27;19971;-56
2022/01/12 15:00:25;;;;;;;;;;;5.60;99.90;;;;;;5137805;27;19931;-58
2022/01/12 15:02:52;;;;;;;;;;;5.50;99.90;;;;;;5129136;27;19931;-56
2022/01/12 15:05:17;;;;;;;;;;;5.50;99.90;;;;;;5125062;27;20036;-57
2022/01/12 15:07:43;;;;;;;;;;;5.60;99.90;;;;;;5128103;27;20417;-58
2022/01/12 15:10:09;;;;;;;;;;;5.50;99.90;;;;;;5126927;27;19927;-57
2022/01/12 15:12:38;;;;;;;;;;;5.40;99.90;;;;;;5142895;27;19987;-58
2022/01/12 15:15:08;;;;;;;;;;;5.50;99.90;;;;;;5140954;27;20419;-56
2022/01/12 15:17:34;;;;;;;;;;;5.40;99.90;;;;;;5132169;27;20414;-58
2022/01/12 15:20:02;;;;;;;;;;;5.30;99.90;;;;;;5134115;27;20385;-56
2022/01/12 15:22:27;;;;;;;;;;;5.30;99.90;;;;;;5142079;27;20402;-56
2022/01/12 15:24:53;;;;;;;;;;;5.60;99.90;;;;;;5132310;27;20014;-58
2022/01/12 15:27:19;;;;;;;;;;;5.30;99.90;;;;;;5135221;27;20389;-59
2022/01/12 15:29:45;;;;;;;;;;;5.20;99.90;;;;;;5125587;27;19972;-56
2022/01/12 15:32:10;;;;;;;;;;;5.60;99.90;;;;;;5143873;27;20173;-56
2022/01/12 15:34:36;;;;;;;;;;;5.10;99.90;;;;;;5128641;27;19932;-56
2022/01/12 15:37:03;;;;;;;;;;;5.10;99.90;;;;;;5142568;27;19934;-56
2022/01/12 15:39:28;;;;;;;;;;;5.10;99.90;;;;;;5126975;27;19931;-56
2022/01/12 15:41:54;;;;;;;;;;;5.30;99.90;;;;;;5133921;27;20749;-56
2022/01/12 15:44:19;;;;;;;;;;;5.10;99.90;;;;;;5134777;27;19966;-57
2022/01/12 15:46:45;;;;;;;;;;;5.00;99.90;;;;;;5141982;27;19927;-57